sensor_id;sensor_type;location;lat;lon;timestamp;temperature;humidity
20858;DHT22;10589;53.636;10.012;2023-04-24T03:46:58;10.50;99.90
20858;DHT22;10589;53.636;10.012;2023-04-24T03:49:24;10.50;99.90
20858;DHT22;10589;53.636;10.012;2023-04-24T03:51:50;10.40;99.90
20858;DHT22;10589;53.636;10.012;2023-04-24T03:54:16;10.40;99.90
20858;DHT22;10589;53.636;10.012;2023-04-24T03:56:41;10.40;99.90
20858;DHT22;10589;53.636;10.012;2023-04-24T03:59:07;10.40;99.90
20858;DHT22;10589;53.636;10.012;2023-04-24T04:01:33;10.40;99.90
20858;DHT22;10589;53.636;10.012;2023-04-24T04:04:02;10.40;99.90
20858;DHT22;10589;53.636;10.012;2023-04-24T04:06:27;10.40;99.90
20858;DHT22;10589;53.636;10.012;2023-04-24T04:08:54;10.40;99.90
20858;DHT22;10589;53.636;10.012;2023-04-24T04:11:20;10.30;99.90
20858;DHT22;10589;53.636;10.012;2023-04-24T04:13:45;10.40;99.90
20858;DHT22;10589;53.636;10.012;2023-04-24T04:16:13;10.40;99.90
20858;DHT22;10589;53.636;10.012;2023-04-24T04:18:39;10.40;99.90
20858;DHT22;10589;53.636;10.012;2023-04-24T04:21:04;10.50;99.90
20858;DHT22;10589;53.636;10.012;2023-04-24T04:23:30;10.40;99.90
20858;DHT22;10589;53.636;10.012;2023-04-24T04:25:57;10.50;99.90
20858;DHT22;10589;53.636;10.012;2023-04-24T04:28:23;10.50;99.90
20858;DHT22;10589;53.636;10.012;2023-04-24T04:30:50;10.50;99.90
20858;DHT22;10589;53.636;10.012;2023-04-24T04:33:19;10.50;99.90
20858;DHT22;10589;53.636;10.012;2023-04-24T04:35:45;10.60;99.90
20858;DHT22;10589;53.636;10.012;2023-04-24T04:38:14;10.70;99.90
20858;DHT22;10589;53.636;10.012;2023-04-24T04:40:40;10.60;99.90
20858;DHT22;10589;53.636;10.012;2023-04-24T04:43:06;10.70;99.90
20858;DHT22;10589;53.636;10.012;2023-04-24T04:45:32;10.70;99.90
20858;DHT22;10589;53.636;10.012;2023-04-24T04:47:59;10.70;99.90
20858;DHT22;10589;53.636;10.012;2023-04-24T04:50:28;10.80;99.90
20858;DHT22;10589;53.636;10.012;2023-04-24T04:52:54;10.70;99.90
20858;DHT22;10589;53.636;10.012;2023-04-24T04:55:20;10.80;99.90
20858;DHT22;10589;53.636;10.012;2023-04-24T04:57:46;10.90;99.90
20858;DHT22;10589;53.636;10.012;2023-04-24T05:00:12;11.00;99.90
20858;DHT22;10589;53.636;10.012;2023-04-24T05:02:39;11.10;99.90
20858;DHT22;10589;53.636;10.012;2023-04-24T05:05:06;11.20;99.90
20858;DHT22;10589;53.636;10.012;2023-04-24T05:07:31;11.30;99.90
20858;DHT22;10589;53.636;10.012;2023-04-24T05:09:57;11.30;99.90
20858;DHT22;10589;53.636;10.012;2023-04-24T05:12:23;11.30;99.90
20858;DHT22;10589;53.636;10.012;2023-04-24T05:14:48;11.20;99.90
20858;DHT22;10589;53.636;10.012;2023-04-24T05:17:14;11.20;99.90
20858;DHT22;10589;53.636;10.012;2023-04-24T05:19:40;11.10;99.90
20858;DHT22;10589;53.636;10.012;2023-04-24T05:22:06;11.00;99.90
20858;DHT22;10589;53.636;10.012;2023-04-24T05:24:33;11.10;99.90
20858;DHT22;10589;53.636;10.012;2023-04-24T05:26:59;11.00;99.90
20858;DHT22;10589;53.636;10.012;2023-04-24T05:29:25;11.10;99.90
20858;DHT22;10589;53.636;10.012;2023-04-24T05:31:51;11.20;99.90
20858;DHT22;10589;53.636;10.012;2023-04-24T05:34:17;11.30;99.90
20858;DHT22;10589;53.636;10.012;2023-04-24T05:36:43;11.20;99.90
20858;DHT22;10589;53.636;10.012;2023-04-24T05:39:09;11.20;99.90
20858;DHT22;10589;53.636;10.012;2023-04-24T05:41:35;11.20;99.90
20858;DHT22;10589;53.636;10.012;2023-04-24T05:44:00;11.30;99.90
20858;DHT22;10589;53.636;10.012;2023-04-24T05:46:26;11.30;99.90
20858;DHT22;10589;53.636;10.012;2023-04-24T05:48:52;11.30;99.90
20858;DHT22;10589;53.636;10.012;2023-04-24T05:51:17;11.30;99.90
20858;DHT22;10589;53.636;10.012;2023-04-24T05:53:43;11.40;99.90
20858;DHT22;10589;53.636;10.012;2023-04-24T05:56:08;11.40;99.90
20858;DHT22;10589;53.636;10.012;2023-04-24T05:58:34;11.40;99.90
20858;DHT22;10589;53.636;10.012;2023-04-24T06:01:00;11.50;99.90
20858;DHT22;10589;53.636;10.012;2023-04-24T06:03:27;11.50;99.90
20858;DHT22;10589;53.636;10.012;2023-04-24T06:05:53;11.50;99.90
20858;DHT22;10589;53.636;10.012;2023-04-24T06:08:18;11.50;99.90
20858;DHT22;10589;53.636;10.012;2023-04-24T06:10:44;11.60;99.90
20858;DHT22;10589;53.636;10.012;2023-04-24T06:13:10;11.60;99.90
20858;DHT22;10589;53.636;10.012;2023-04-24T06:15:36;11.60;99.90
20858;DHT22;10589;53.636;10.012;2023-04-24T06:18:02;11.70;99.90
20858;DHT22;10589;53.636;10.012;2023-04-24T06:20:28;11.70;99.90
20858;DHT22;10589;53.636;10.012;2023-04-24T06:22:54;11.70;99.90
20858;DHT22;10589;53.636;10.012;2023-04-24T06:25:20;11.80;99.90
20858;DHT22;10589;53.636;10.012;2023-04-24T06:27:46;11.80;99.90
20858;DHT22;10589;53.636;10.012;2023-04-24T06:30:12;11.90;99.90
20858;DHT22;10589;53.636;10.012;2023-04-24T06:32:37;11.90;99.90
20858;DHT22;10589;53.636;10.012;2023-04-24T06:35:04;12.00;99.90
20858;DHT22;10589;53.636;10.012;2023-04-24T06:37:29;12.00;99.90
20858;DHT22;10589;53.636;10.012;2023-04-24T06:39:55;12.10;99.90
20858;DHT22;10589;53.636;10.012;2023-04-24T06:42:21;12.10;99.90
20858;DHT22;10589;53.636;10.012;2023-04-24T06:44:47;12.30;99.90
20858;DHT22;10589;53.636;10.012;2023-04-24T06:47:13;12.30;99.90
20858;DHT22;10589;53.636;10.012;2023-04-24T06:49:39;12.30;99.90
20858;DHT22;10589;53.636;10.012;2023-04-24T06:52:05;12.30;99.90
20858;DHT22;10589;53.636;10.012;2023-04-24T06:54:31;12.40;99.90
20858;DHT22;10589;53.636;10.012;2023-04-24T06:57:01;12.50;99.90
20858;DHT22;10589;53.636;10.012;2023-04-24T06:59:28;12.50;99.90
20858;DHT22;10589;53.636;10.012;2023-04-24T07:01:54;12.50;99.90
20858;DHT22;10589;53.636;10.012;2023-04-24T07:04:20;12.60;99.90
20858;DHT22;10589;53.636;10.012;2023-04-24T07:06:46;12.80;99.90
20858;DHT22;10589;53.636;10.012;2023-04-24T07:09:12;12.90;99.90
20858;DHT22;10589;53.636;10.012;2023-04-24T07:11:39;13.00;99.90
20858;DHT22;10589;53.636;10.012;2023-04-24T07:14:06;12.80;99.90
20858;DHT22;10589;53.636;10.012;2023-04-24T07:16:32;12.90;99.90
20858;DHT22;10589;53.636;10.012;2023-04-24T07:18:57;12.90;99.90
20858;DHT22;10589;53.636;10.012;2023-04-24T07:21:23;12.90;99.90
20858;DHT22;10589;53.636;10.012;2023-04-24T07:23:48;13.00;99.90
20858;DHT22;10589;53.636;10.012;2023-04-24T07:26:14;13.10;99.90
20858;DHT22;10589;53.636;10.012;2023-04-24T07:28:40;13.20;99.90
20858;DHT22;10589;53.636;10.012;2023-04-24T07:31:06;13.20;99.90
20858;DHT22;10589;53.636;10.012;2023-04-24T07:33:32;13.20;99.90
20858;DHT22;10589;53.636;10.012;2023-04-24T07:35:58;13.10;99.90
20858;DHT22;10589;53.636;10.012;2023-04-24T07:38:24;13.00;99.90
20858;DHT22;10589;53.636;10.012;2023-04-24T07:40:51;13.00;99.90
20858;DHT22;10589;53.636;10.012;2023-04-24T07:43:17;13.10;99.90
20858;DHT22;10589;53.636;10.012;2023-04-24T07:45:43;13.20;99.90
20858;DHT22;10589;53.636;10.012;2023-04-24T07:48:09;13.20;99.90
20858;DHT22;10589;53.636;10.012;2023-04-24T07:50:35;13.10;99.90
20858;DHT22;10589;53.636;10.012;2023-04-24T07:53:02;13.20;99.90
20858;DHT22;10589;53.636;10.012;2023-04-24T07:55:27;13.40;99.90
20858;DHT22;10589;53.636;10.012;2023-04-24T07:57:53;13.60;99.90
20858;DHT22;10589;53.636;10.012;2023-04-24T08:00:19;13.80;99.90
20858;DHT22;10589;53.636;10.012;2023-04-24T08:02:45;13.90;99.90
20858;DHT22;10589;53.636;10.012;2023-04-24T08:05:10;13.80;99.90
20858;DHT22;10589;53.636;10.012;2023-04-24T08:07:36;13.60;99.90
20858;DHT22;10589;53.636;10.012;2023-04-24T08:10:02;13.60;99.90
20858;DHT22;10589;53.636;10.012;2023-04-24T08:12:31;13.40;99.90
20858;DHT22;10589;53.636;10.012;2023-04-24T08:14:57;13.40;99.90
20858;DHT22;10589;53.636;10.012;2023-04-24T08:17:24;13.50;99.90
20858;DHT22;10589;53.636;10.012;2023-04-24T08:19:49;13.40;99.90
20858;DHT22;10589;53.636;10.012;2023-04-24T08:22:17;13.60;99.90
20858;DHT22;10589;53.636;10.012;2023-04-24T08:24:42;13.80;99.90
20858;DHT22;10589;53.636;10.012;2023-04-24T08:27:09;14.00;99.90
20858;DHT22;10589;53.636;10.012;2023-04-24T08:29:36;14.00;99.90
20858;DHT22;10589;53.636;10.012;2023-04-24T08:32:01;13.90;99.90
20858;DHT22;10589;53.636;10.012;2023-04-24T08:34:27;14.00;99.90
20858;DHT22;10589;53.636;10.012;2023-04-24T08:36:52;14.00;99.90
20858;DHT22;10589;53.636;10.012;2023-04-24T08:39:18;14.00;99.90
20858;DHT22;10589;53.636;10.012;2023-04-24T08:41:44;13.90;99.90
20858;DHT22;10589;53.636;10.012;2023-04-24T08:44:11;13.90;99.90
20858;DHT22;10589;53.636;10.012;2023-04-24T08:46:39;13.60;99.90
20858;DHT22;10589;53.636;10.012;2023-04-24T08:49:05;13.60;99.90
20858;DHT22;10589;53.636;10.012;2023-04-24T08:51:31;13.70;99.90
20858;DHT22;10589;53.636;10.012;2023-04-24T08:53:57;13.80;99.90
20858;DHT22;10589;53.636;10.012;2023-04-24T08:56:23;13.60;99.90
20858;DHT22;10589;53.636;10.012;2023-04-24T08:58:51;13.40;99.90
20858;DHT22;10589;53.636;10.012;2023-04-24T09:01:19;13.40;99.90
20858;DHT22;10589;53.636;10.012;2023-04-24T09:03:48;13.30;99.90
20858;DHT22;10589;53.636;10.012;2023-04-24T09:06:15;13.40;99.90
20858;DHT22;10589;53.636;10.012;2023-04-24T09:08:42;13.70;99.90
20858;DHT22;10589;53.636;10.012;2023-04-24T09:11:10;14.00;99.90
20858;DHT22;10589;53.636;10.012;2023-04-24T09:13:36;14.10;99.90
20858;DHT22;10589;53.636;10.012;2023-04-24T09:16:02;14.30;99.90
20858;DHT22;10589;53.636;10.012;2023-04-24T09:18:28;14.50;99.90
20858;DHT22;10589;53.636;10.012;2023-04-24T09:21:06;14.80;99.90
20858;DHT22;10589;53.636;10.012;2023-04-24T09:23:32;14.80;99.90
20858;DHT22;10589;53.636;10.012;2023-04-24T09:25:59;14.70;99.90
20858;DHT22;10589;53.636;10.012;2023-04-24T09:28:30;14.70;99.90
20858;DHT22;10589;53.636;10.012;2023-04-24T09:31:23;14.60;99.90
20858;DHT22;10589;53.636;10.012;2023-04-24T09:34:00;14.40;99.90
20858;DHT22;10589;53.636;10.012;2023-04-24T09:36:30;14.20;99.90
20858;DHT22;10589;53.636;10.012;2023-04-24T09:38:59;14.10;99.90
20858;DHT22;10589;53.636;10.012;2023-04-24T09:41:25;14.00;99.90
20858;DHT22;10589;53.636;10.012;2023-04-24T09:43:53;13.90;99.90
20858;DHT22;10589;53.636;10.012;2023-04-24T09:46:19;14.00;99.90
20858;DHT22;10589;53.636;10.012;2023-04-24T09:48:46;14.00;99.90
20858;DHT22;10589;53.636;10.012;2023-04-24T09:51:12;14.00;99.90
20858;DHT22;10589;53.636;10.012;2023-04-24T09:53:38;14.00;99.90
20858;DHT22;10589;53.636;10.012;2023-04-24T09:56:09;14.10;99.90
20858;DHT22;10589;53.636;10.012;2023-04-24T09:58:36;14.00;99.90
20858;DHT22;10589;53.636;10.012;2023-04-24T10:01:02;14.10;99.90
20858;DHT22;10589;53.636;10.012;2023-04-24T10:03:34;14.10;99.90
20858;DHT22;10589;53.636;10.012;2023-04-24T10:06:03;14.00;99.90
20858;DHT22;10589;53.636;10.012;2023-04-24T10:08:35;13.90;99.90
20858;DHT22;10589;53.636;10.012;2023-04-24T10:11:01;13.90;99.90
20858;DHT22;10589;53.636;10.012;2023-04-24T10:13:27;13.80;99.90
20858;DHT22;10589;53.636;10.012;2023-04-24T10:15:53;13.60;99.90
20858;DHT22;10589;53.636;10.012;2023-04-24T10:18:20;13.60;99.90
20858;DHT22;10589;53.636;10.012;2023-04-24T10:20:46;13.70;99.90
20858;DHT22;10589;53.636;10.012;2023-04-24T10:23:12;13.60;99.90
20858;DHT22;10589;53.636;10.012;2023-04-24T10:25:38;13.80;99.90
20858;DHT22;10589;53.636;10.012;2023-04-24T10:28:04;14.00;99.90
20858;DHT22;10589;53.636;10.012;2023-04-24T10:30:35;14.00;99.90
20858;DHT22;10589;53.636;10.012;2023-04-24T10:33:04;14.00;99.90
20858;DHT22;10589;53.636;10.012;2023-04-24T10:35:32;13.80;99.90
20858;DHT22;10589;53.636;10.012;2023-04-24T10:38:03;13.80;99.90
20858;DHT22;10589;53.636;10.012;2023-04-24T10:40:32;13.80;99.90
20858;DHT22;10589;53.636;10.012;2023-04-24T10:43:02;13.80;99.90
20858;DHT22;10589;53.636;10.012;2023-04-24T10:45:28;13.80;99.90
20858;DHT22;10589;53.636;10.012;2023-04-24T10:48:08;14.20;99.90
20858;DHT22;10589;53.636;10.012;2023-04-24T10:50:47;14.10;99.90
20858;DHT22;10589;53.636;10.012;2023-04-24T10:53:19;13.90;99.90
20858;DHT22;10589;53.636;10.012;2023-04-24T10:55:51;13.70;99.90
20858;DHT22;10589;53.636;10.012;2023-04-24T10:58:22;13.80;99.90
20858;DHT22;10589;53.636;10.012;2023-04-24T11:00:59;13.90;99.90
20858;DHT22;10589;53.636;10.012;2023-04-24T11:03:33;13.90;99.90
20858;DHT22;10589;53.636;10.012;2023-04-24T11:06:09;13.70;99.90
20858;DHT22;10589;53.636;10.012;2023-04-24T11:26:55;14.20;99.90
20858;DHT22;10589;53.636;10.012;2023-04-24T11:29:22;14.10;99.90
20858;DHT22;10589;53.636;10.012;2023-04-24T11:31:47;14.20;99.90
20858;DHT22;10589;53.636;10.012;2023-04-24T11:34:15;14.30;99.90
20858;DHT22;10589;53.636;10.012;2023-04-24T11:36:48;14.40;99.90
20858;DHT22;10589;53.636;10.012;2023-04-24T11:39:14;14.50;99.90
20858;DHT22;10589;53.636;10.012;2023-04-24T11:41:40;14.60;99.90
20858;DHT22;10589;53.636;10.012;2023-04-24T11:44:08;14.80;99.90
20858;DHT22;10589;53.636;10.012;2023-04-24T11:46:34;14.90;99.90
20858;DHT22;10589;53.636;10.012;2023-04-24T11:48:59;15.20;99.90
20858;DHT22;10589;53.636;10.012;2023-04-24T11:51:27;15.00;99.90
20858;DHT22;10589;53.636;10.012;2023-04-24T11:53:54;14.80;99.90
20858;DHT22;10589;53.636;10.012;2023-04-24T11:56:24;14.70;99.90
20858;DHT22;10589;53.636;10.012;2023-04-24T11:58:52;14.60;99.90
20858;DHT22;10589;53.636;10.012;2023-04-24T12:01:19;14.50;99.90
20858;DHT22;10589;53.636;10.012;2023-04-24T12:03:51;14.50;99.90
20858;DHT22;10589;53.636;10.012;2023-04-24T12:06:24;14.60;99.90
20858;DHT22;10589;53.636;10.012;2023-04-24T12:08:52;14.40;99.90
20858;DHT22;10589;53.636;10.012;2023-04-24T12:11:18;14.30;99.90
20858;DHT22;10589;53.636;10.012;2023-04-24T12:13:44;14.30;99.90
20858;DHT22;10589;53.636;10.012;2023-04-24T12:16:10;14.60;99.90
20858;DHT22;10589;53.636;10.012;2023-04-24T12:18:44;15.10;99.90
20858;DHT22;10589;53.636;10.012;2023-04-24T12:21:23;15.30;99.90
20858;DHT22;10589;53.636;10.012;2023-04-24T12:23:54;15.60;99.90
20858;DHT22;10589;53.636;10.012;2023-04-24T12:26:21;15.60;99.90
20858;DHT22;10589;53.636;10.012;2023-04-24T12:28:49;15.50;99.90
20858;DHT22;10589;53.636;10.012;2023-04-24T12:31:17;15.50;99.90
20858;DHT22;10589;53.636;10.012;2023-04-24T12:33:45;15.30;99.90
20858;DHT22;10589;53.636;10.012;2023-04-24T12:36:11;14.80;99.90
20858;DHT22;10589;53.636;10.012;2023-04-24T12:38:38;14.60;99.90
20858;DHT22;10589;53.636;10.012;2023-04-24T12:41:07;14.30;99.90
20858;DHT22;10589;53.636;10.012;2023-04-24T12:43:33;14.10;99.90
20858;DHT22;10589;53.636;10.012;2023-04-24T12:45:59;13.90;99.90
20858;DHT22;10589;53.636;10.012;2023-04-24T12:48:26;13.80;99.90
20858;DHT22;10589;53.636;10.012;2023-04-24T12:50:52;13.90;99.90
20858;DHT22;10589;53.636;10.012;2023-04-24T12:53:17;13.70;99.90
20858;DHT22;10589;53.636;10.012;2023-04-24T12:55:44;13.80;99.90
20858;DHT22;10589;53.636;10.012;2023-04-24T12:58:10;13.80;99.90
20858;DHT22;10589;53.636;10.012;2023-04-24T13:00:38;13.80;99.90
20858;DHT22;10589;53.636;10.012;2023-04-24T13:03:04;13.70;99.90
20858;DHT22;10589;53.636;10.012;2023-04-24T13:05:30;13.70;99.90
20858;DHT22;10589;53.636;10.012;2023-04-24T13:07:56;13.70;99.90
20858;DHT22;10589;53.636;10.012;2023-04-24T13:10:22;13.60;99.90
20858;DHT22;10589;53.636;10.012;2023-04-24T13:12:48;13.20;99.90
20858;DHT22;10589;53.636;10.012;2023-04-24T13:15:13;13.10;99.90
20858;DHT22;10589;53.636;10.012;2023-04-24T13:17:39;13.00;99.90
20858;DHT22;10589;53.636;10.012;2023-04-24T13:20:05;13.10;99.90
20858;DHT22;10589;53.636;10.012;2023-04-24T13:22:31;12.90;99.90
20858;DHT22;10589;53.636;10.012;2023-04-24T13:24:57;12.90;99.90
20858;DHT22;10589;53.636;10.012;2023-04-24T13:27:23;13.00;99.90
20858;DHT22;10589;53.636;10.012;2023-04-24T13:29:48;13.00;99.90
20858;DHT22;10589;53.636;10.012;2023-04-24T13:32:14;13.10;99.90
20858;DHT22;10589;53.636;10.012;2023-04-24T13:34:40;13.10;99.90
20858;DHT22;10589;53.636;10.012;2023-04-24T13:37:05;13.20;99.90
20858;DHT22;10589;53.636;10.012;2023-04-24T13:39:31;13.20;99.90
20858;DHT22;10589;53.636;10.012;2023-04-24T13:41:57;13.30;99.90
20858;DHT22;10589;53.636;10.012;2023-04-24T13:44:23;13.30;99.90
20858;DHT22;10589;53.636;10.012;2023-04-24T13:46:51;13.20;99.90
20858;DHT22;10589;53.636;10.012;2023-04-24T13:49:19;13.00;99.90
20858;DHT22;10589;53.636;10.012;2023-04-24T13:51:45;13.10;99.90
20858;DHT22;10589;53.636;10.012;2023-04-24T13:54:11;13.00;99.90
20858;DHT22;10589;53.636;10.012;2023-04-24T13:56:37;13.00;99.90
20858;DHT22;10589;53.636;10.012;2023-04-24T13:59:02;12.90;99.90
20858;DHT22;10589;53.636;10.012;2023-04-24T14:01:28;12.90;99.90
20858;DHT22;10589;53.636;10.012;2023-04-24T14:03:55;12.90;99.90
20858;DHT22;10589;53.636;10.012;2023-04-24T14:06:21;13.10;99.90
20858;DHT22;10589;53.636;10.012;2023-04-24T14:08:48;13.10;99.90
20858;DHT22;10589;53.636;10.012;2023-04-24T14:11:14;13.10;99.90
20858;DHT22;10589;53.636;10.012;2023-04-24T14:13:44;13.20;99.90
20858;DHT22;10589;53.636;10.012;2023-04-24T14:16:10;13.20;99.90
20858;DHT22;10589;53.636;10.012;2023-04-24T14:18:36;13.20;99.90
20858;DHT22;10589;53.636;10.012;2023-04-24T14:21:03;12.90;99.90
20858;DHT22;10589;53.636;10.012;2023-04-24T14:23:29;12.80;99.90
20858;DHT22;10589;53.636;10.012;2023-04-24T14:25:55;12.80;99.90
20858;DHT22;10589;53.636;10.012;2023-04-24T14:28:21;12.70;99.90
20858;DHT22;10589;53.636;10.012;2023-04-24T14:30:47;12.50;99.90
20858;DHT22;10589;53.636;10.012;2023-04-24T14:33:13;12.50;99.90
20858;DHT22;10589;53.636;10.012;2023-04-24T14:35:40;12.40;99.90
20858;DHT22;10589;53.636;10.012;2023-04-24T14:38:07;12.30;99.90
20858;DHT22;10589;53.636;10.012;2023-04-24T14:40:32;11.90;99.90
20858;DHT22;10589;53.636;10.012;2023-04-24T14:42:58;11.50;99.90
20858;DHT22;10589;53.636;10.012;2023-04-24T14:45:24;11.20;99.90
20858;DHT22;10589;53.636;10.012;2023-04-24T14:47:50;11.10;99.90
20858;DHT22;10589;53.636;10.012;2023-04-24T14:50:16;10.90;99.90
20858;DHT22;10589;53.636;10.012;2023-04-24T14:52:42;10.70;99.90
20858;DHT22;10589;53.636;10.012;2023-04-24T14:55:08;10.60;99.90
20858;DHT22;10589;53.636;10.012;2023-04-24T14:57:34;10.60;99.90
20858;DHT22;10589;53.636;10.012;2023-04-24T15:00:01;10.60;99.90
20858;DHT22;10589;53.636;10.012;2023-04-24T15:02:28;10.40;99.90
20858;DHT22;10589;53.636;10.012;2023-04-24T15:04:55;10.40;99.90
20858;DHT22;10589;53.636;10.012;2023-04-24T15:07:21;10.40;99.90
20858;DHT22;10589;53.636;10.012;2023-04-24T15:09:47;10.40;99.90
20858;DHT22;10589;53.636;10.012;2023-04-24T15:12:13;10.40;99.90
20858;DHT22;10589;53.636;10.012;2023-04-24T15:14:38;10.30;99.90
20858;DHT22;10589;53.636;10.012;2023-04-24T15:17:04;10.30;99.90
20858;DHT22;10589;53.636;10.012;2023-04-24T15:19:30;10.20;99.90
20858;DHT22;10589;53.636;10.012;2023-04-24T15:21:56;10.10;99.90
20858;DHT22;10589;53.636;10.012;2023-04-24T15:24:22;10.20;99.90
20858;DHT22;10589;53.636;10.012;2023-04-24T15:26:47;10.10;99.90
20858;DHT22;10589;53.636;10.012;2023-04-24T15:29:13;10.10;99.90
20858;DHT22;10589;53.636;10.012;2023-04-24T15:31:39;10.00;99.90
20858;DHT22;10589;53.636;10.012;2023-04-24T15:34:05;9.90;99.90
20858;DHT22;10589;53.636;10.012;2023-04-24T15:36:32;9.80;99.90
20858;DHT22;10589;53.636;10.012;2023-04-24T15:38:58;9.80;99.90
20858;DHT22;10589;53.636;10.012;2023-04-24T15:41:23;9.60;99.90
20858;DHT22;10589;53.636;10.012;2023-04-24T15:43:49;9.60;99.90
20858;DHT22;10589;53.636;10.012;2023-04-24T15:46:15;9.50;99.90
20858;DHT22;10589;53.636;10.012;2023-04-24T15:48:44;9.40;99.90
20858;DHT22;10589;53.636;10.012;2023-04-24T15:51:09;9.30;99.90
20858;DHT22;10589;53.636;10.012;2023-04-24T15:53:36;9.20;99.90
20858;DHT22;10589;53.636;10.012;2023-04-24T15:56:01;9.30;99.90
20858;DHT22;10589;53.636;10.012;2023-04-24T15:58:27;9.30;99.90
20858;DHT22;10589;53.636;10.012;2023-04-24T16:00:53;9.20;99.90
20858;DHT22;10589;53.636;10.012;2023-04-24T16:03:19;9.30;99.90
20858;DHT22;10589;53.636;10.012;2023-04-24T16:05:45;9.20;99.90
20858;DHT22;10589;53.636;10.012;2023-04-24T16:08:11;9.20;99.90
20858;DHT22;10589;53.636;10.012;2023-04-24T16:10:38;9.20;99.90
20858;DHT22;10589;53.636;10.012;2023-04-24T16:13:04;9.10;99.90
20858;DHT22;10589;53.636;10.012;2023-04-24T16:15:30;9.00;99.90
20858;DHT22;10589;53.636;10.012;2023-04-24T16:17:56;8.90;99.90
20858;DHT22;10589;53.636;10.012;2023-04-24T16:20:22;8.90;99.90
20858;DHT22;10589;53.636;10.012;2023-04-24T16:22:48;8.70;99.90
20858;DHT22;10589;53.636;10.012;2023-04-24T16:25:14;8.60;99.90
20858;DHT22;10589;53.636;10.012;2023-04-24T16:27:39;8.60;99.90
20858;DHT22;10589;53.636;10.012;2023-04-24T16:30:06;8.60;99.90
20858;DHT22;10589;53.636;10.012;2023-04-24T16:32:31;8.50;99.90
20858;DHT22;10589;53.636;10.012;2023-04-24T16:34:57;8.40;99.90
20858;DHT22;10589;53.636;10.012;2023-04-24T16:37:23;8.30;99.90
20858;DHT22;10589;53.636;10.012;2023-04-24T16:39:48;8.20;99.90
20858;DHT22;10589;53.636;10.012;2023-04-24T16:42:14;8.10;99.90
20858;DHT22;10589;53.636;10.012;2023-04-24T16:44:41;8.00;99.90
20858;DHT22;10589;53.636;10.012;2023-04-24T16:47:10;8.00;99.90
20858;DHT22;10589;53.636;10.012;2023-04-24T16:49:38;8.00;99.90
20858;DHT22;10589;53.636;10.012;2023-04-24T16:52:04;7.90;99.90
20858;DHT22;10589;53.636;10.012;2023-04-24T16:54:29;7.90;99.90
20858;DHT22;10589;53.636;10.012;2023-04-24T16:56:59;8.00;99.90
20858;DHT22;10589;53.636;10.012;2023-04-24T16:59:24;7.90;99.90
20858;DHT22;10589;53.636;10.012;2023-04-24T17:01:50;7.90;99.90
20858;DHT22;10589;53.636;10.012;2023-04-24T17:04:15;7.90;99.90
20858;DHT22;10589;53.636;10.012;2023-04-24T17:06:41;7.80;99.90
20858;DHT22;10589;53.636;10.012;2023-04-24T17:09:08;7.80;99.90
20858;DHT22;10589;53.636;10.012;2023-04-24T17:11:33;7.80;99.90
20858;DHT22;10589;53.636;10.012;2023-04-24T17:13:59;7.80;99.90
20858;DHT22;10589;53.636;10.012;2023-04-24T17:16:25;7.90;99.90
20858;DHT22;10589;53.636;10.012;2023-04-24T17:18:50;7.90;99.90
20858;DHT22;10589;53.636;10.012;2023-04-24T17:21:16;7.90;99.90
20858;DHT22;10589;53.636;10.012;2023-04-24T17:23:42;7.90;99.90
20858;DHT22;10589;53.636;10.012;2023-04-24T17:26:08;7.80;99.90
20858;DHT22;10589;53.636;10.012;2023-04-24T17:28:34;7.90;99.90
20858;DHT22;10589;53.636;10.012;2023-04-24T17:31:01;7.90;99.90
20858;DHT22;10589;53.636;10.012;2023-04-24T17:33:28;7.90;99.90
20858;DHT22;10589;53.636;10.012;2023-04-24T17:35:55;8.00;99.90
20858;DHT22;10589;53.636;10.012;2023-04-24T17:38:21;8.00;99.90
20858;DHT22;10589;53.636;10.012;2023-04-24T17:40:47;8.00;99.90
20858;DHT22;10589;53.636;10.012;2023-04-24T17:43:22;8.00;99.90
20858;DHT22;10589;53.636;10.012;2023-04-24T17:45:50;7.90;99.90
20858;DHT22;10589;53.636;10.012;2023-04-24T17:48:17;7.90;99.90
20858;DHT22;10589;53.636;10.012;2023-04-24T17:50:43;7.80;99.90
20858;DHT22;10589;53.636;10.012;2023-04-24T17:53:09;7.90;99.90
20858;DHT22;10589;53.636;10.012;2023-04-24T17:55:39;7.90;99.90
20858;DHT22;10589;53.636;10.012;2023-04-24T17:58:05;7.90;99.90
20858;DHT22;10589;53.636;10.012;2023-04-24T18:00:32;7.90;99.90
20858;DHT22;10589;53.636;10.012;2023-04-24T18:02:58;7.90;99.90
20858;DHT22;10589;53.636;10.012;2023-04-24T18:05:30;8.00;99.90
20858;DHT22;10589;53.636;10.012;2023-04-24T18:07:57;8.00;99.90
20858;DHT22;10589;53.636;10.012;2023-04-24T18:10:24;8.10;99.90
20858;DHT22;10589;53.636;10.012;2023-04-24T18:12:51;8.00;99.90
20858;DHT22;10589;53.636;10.012;2023-04-24T18:15:18;8.00;99.90
20858;DHT22;10589;53.636;10.012;2023-04-24T18:17:44;8.00;99.90
20858;DHT22;10589;53.636;10.012;2023-04-24T18:20:11;7.90;99.90
20858;DHT22;10589;53.636;10.012;2023-04-24T18:22:38;7.90;99.90
20858;DHT22;10589;53.636;10.012;2023-04-24T18:25:07;7.90;99.90
20858;DHT22;10589;53.636;10.012;2023-04-24T18:27:37;7.90;99.90
20858;DHT22;10589;53.636;10.012;2023-04-24T18:30:05;7.90;99.90
20858;DHT22;10589;53.636;10.012;2023-04-24T18:32:31;8.00;99.90
20858;DHT22;10589;53.636;10.012;2023-04-24T18:34:58;8.00;99.90
20858;DHT22;10589;53.636;10.012;2023-04-24T18:37:24;8.00;99.90
20858;DHT22;10589;53.636;10.012;2023-04-24T18:39:50;8.10;99.90
20858;DHT22;10589;53.636;10.012;2023-04-24T18:42:18;8.10;99.90
20858;DHT22;10589;53.636;10.012;2023-04-24T18:44:44;8.10;99.90
20858;DHT22;10589;53.636;10.012;2023-04-24T18:47:15;8.10;99.90
20858;DHT22;10589;53.636;10.012;2023-04-24T18:49:43;8.10;99.90
20858;DHT22;10589;53.636;10.012;2023-04-24T18:52:09;8.10;99.90
20858;DHT22;10589;53.636;10.012;2023-04-24T18:54:34;8.10;99.90
20858;DHT22;10589;53.636;10.012;2023-04-24T18:57:00;8.10;99.90
20858;DHT22;10589;53.636;10.012;2023-04-24T18:59:27;8.10;99.90
20858;DHT22;10589;53.636;10.012;2023-04-24T19:01:52;8.10;99.90
20858;DHT22;10589;53.636;10.012;2023-04-24T19:04:18;8.20;99.90
20858;DHT22;10589;53.636;10.012;2023-04-24T19:06:45;8.10;99.90
20858;DHT22;10589;53.636;10.012;2023-04-24T19:09:11;8.10;99.90
20858;DHT22;10589;53.636;10.012;2023-04-24T19:11:38;8.10;99.90
20858;DHT22;10589;53.636;10.012;2023-04-24T19:14:09;8.10;99.90
20858;DHT22;10589;53.636;10.012;2023-04-24T19:16:35;8.00;99.90
20858;DHT22;10589;53.636;10.012;2023-04-24T19:19:01;8.00;99.90
20858;DHT22;10589;53.636;10.012;2023-04-24T19:21:26;8.10;99.90